createdAt,value
2022-11-29T00:02:07.708Z,101162.84
2022-11-29T00:06:21.951Z,101161.00
2022-11-29T00:10:23.401Z,101175.22
2022-11-29T00:14:26.590Z,101173.00
2022-11-29T00:18:27.974Z,101179.94
2022-11-29T00:22:30.132Z,101174.09
2022-11-29T00:26:31.631Z,101179.66
2022-11-29T00:30:33.082Z,101178.09
2022-11-29T00:34:34.572Z,101178.09
2022-11-29T00:38:35.971Z,101180.59
2022-11-29T00:42:37.365Z,101176.69
2022-11-29T00:46:38.782Z,101174.63
2022-11-29T00:50:40.264Z,101179.72
2022-11-29T00:54:41.980Z,101176.75
2022-11-29T00:58:43.710Z,101172.91
2022-11-29T01:02:45.183Z,101171.97
2022-11-29T01:06:46.623Z,101177.31
2022-11-29T01:10:48.094Z,101166.78
2022-11-29T01:14:49.532Z,101175.41
2022-11-29T01:18:51.009Z,101176.81
2022-11-29T01:22:52.671Z,101172.69
2022-11-29T01:26:54.084Z,101178.72
2022-11-29T01:30:55.816Z,101180.66
2022-11-29T01:34:57.267Z,101179.72
2022-11-29T01:39:00.592Z,101181.03
2022-11-29T01:43:02.029Z,101176.88
2022-11-29T01:47:03.520Z,101175.09
2022-11-29T01:51:05.081Z,101172.41
2022-11-29T01:55:08.986Z,101172.59
2022-11-29T01:59:14.468Z,101166.88
2022-11-29T02:03:17.552Z,101166.09
2022-11-29T02:07:19.113Z,101165.34
2022-11-29T02:12:08.407Z,101176.00
2022-11-29T02:16:51.100Z,101164.78
2022-11-29T02:21:30.725Z,101172.22
2022-11-29T02:25:53.642Z,101172.06
2022-11-29T02:30:09.271Z,101179.25
2022-11-29T02:34:29.461Z,101183.41
2022-11-29T02:38:59.592Z,101180.38
2022-11-29T02:43:15.986Z,101179.63
2022-11-29T02:47:39.088Z,101186.44
2022-11-29T02:51:53.953Z,101188.56
2022-11-29T02:56:10.770Z,101193.28
2022-11-29T03:00:20.040Z,101189.97
2022-11-29T03:04:43.851Z,101196.03
2022-11-29T03:08:54.065Z,101189.41
2022-11-29T03:12:55.604Z,101195.53
2022-11-29T03:17:05.748Z,101202.50
2022-11-29T03:21:20.289Z,101206.38
2022-11-29T03:25:41.989Z,101203.34
2022-11-29T03:29:51.203Z,101210.84
2022-11-29T03:34:19.712Z,101212.78
2022-11-29T03:38:28.259Z,101217.59
2022-11-29T03:42:40.408Z,101217.47
2022-11-29T03:47:24.603Z,101221.63
2022-11-29T03:51:38.163Z,101226.00
2022-11-29T03:55:57.002Z,101219.41
2022-11-29T04:00:05.465Z,101218.06
2022-11-29T04:04:37.787Z,101228.94
2022-11-29T04:08:52.661Z,101223.19
2022-11-29T04:13:15.307Z,101222.66
2022-11-29T04:17:19.784Z,101222.38
2022-11-29T04:21:37.586Z,101233.00
2022-11-29T04:25:57.660Z,101227.25
2022-11-29T04:30:13.675Z,101224.25
2022-11-29T04:34:48.879Z,101219.84
2022-11-29T04:39:38.469Z,101227.69
2022-11-29T04:43:58.487Z,101231.38
2022-11-29T04:48:05.847Z,101231.75
2022-11-29T04:52:28.767Z,101226.34
2022-11-29T04:56:43.216Z,101233.38
2022-11-29T05:01:09.574Z,101235.09
2022-11-29T05:05:44.184Z,101238.44
2022-11-29T05:10:27.540Z,101243.75
2022-11-29T05:14:47.779Z,101242.44
2022-11-29T05:18:57.364Z,101240.50
2022-11-29T05:23:23.656Z,101254.78
2022-11-29T05:27:34.302Z,101246.78
2022-11-29T05:32:06.723Z,101257.47
2022-11-29T05:36:24.538Z,101265.00
2022-11-29T05:40:49.342Z,101266.94
2022-11-29T05:45:00.892Z,101279.22
2022-11-29T05:49:25.542Z,101271.50
2022-11-29T05:53:38.750Z,101281.06
2022-11-29T05:57:52.254Z,101286.53
2022-11-29T06:02:15.264Z,101283.28
2022-11-29T06:06:26.000Z,101292.03
2022-11-29T06:10:40.084Z,101304.31
2022-11-29T06:14:59.745Z,101305.47
2022-11-29T06:19:11.218Z,101310.16
2022-11-29T06:23:15.595Z,101313.13
2022-11-29T06:27:21.784Z,101320.31
2022-11-29T06:31:55.782Z,101323.69
2022-11-29T06:36:21.002Z,101322.75
2022-11-29T06:40:22.739Z,101327.84
2022-11-29T06:44:24.552Z,101338.97
2022-11-29T06:48:29.642Z,101337.06
2022-11-29T06:52:34.184Z,101339.81
2022-11-29T06:56:40.798Z,101338.75
2022-11-29T07:01:03.523Z,101347.88
2022-11-29T07:05:20.292Z,101350.44
2022-11-29T07:09:26.828Z,101353.50
2022-11-29T07:13:28.577Z,101350.09
2022-11-29T07:17:36.040Z,101354.59
2022-11-29T07:21:37.473Z,101350.38
2022-11-29T07:25:47.949Z,101355.56
2022-11-29T07:30:05.162Z,101358.63
2022-11-29T07:34:21.119Z,101367.06
2022-11-29T07:38:52.202Z,101360.91
2022-11-29T07:43:15.619Z,101364.41
2022-11-29T07:47:17.062Z,101365.72
2022-11-29T07:51:18.527Z,101371.13
2022-11-29T07:55:22.639Z,101376.84
2022-11-29T07:59:24.104Z,101379.88
2022-11-29T08:03:25.565Z,101371.22
2022-11-29T08:07:27.711Z,101376.91
2022-11-29T08:11:29.306Z,101380.56
2022-11-29T08:15:30.969Z,101385.13
2022-11-29T08:19:32.418Z,101392.75
2022-11-29T08:23:33.840Z,101395.97
2022-11-29T08:27:36.833Z,101392.91
2022-11-29T08:31:38.572Z,101402.78
2022-11-29T08:35:42.097Z,101401.75
2022-11-29T08:39:44.050Z,101403.59
2022-11-29T08:43:45.556Z,101399.53
2022-11-29T08:47:47.141Z,101403.28
2022-11-29T08:51:51.905Z,101410.25
2022-11-29T08:55:53.392Z,101407.59
2022-11-29T08:59:54.812Z,101407.50
2022-11-29T09:04:07.643Z,101407.38
2022-11-29T09:08:09.203Z,101412.78
2022-11-29T09:12:10.646Z,101422.50
2022-11-29T09:16:15.507Z,101424.56
2022-11-29T09:20:16.967Z,101421.22
2022-11-29T09:24:19.599Z,101433.59
2022-11-29T09:28:21.055Z,101427.97
2022-11-29T09:32:22.636Z,101433.84
2022-11-29T09:36:28.405Z,101420.75
2022-11-29T09:40:52.844Z,101421.56
2022-11-29T09:45:14.518Z,101423.94
2022-11-29T09:49:27.804Z,101428.41
2022-11-29T09:53:59.401Z,101424.50
2022-11-29T09:58:03.818Z,101427.03
2022-11-29T10:02:25.352Z,101429.19
2022-11-29T10:06:35.069Z,101427.97
2022-11-29T10:10:44.840Z,101435.56
2022-11-29T10:14:50.062Z,101435.81
2022-11-29T10:19:01.291Z,101431.19
2022-11-29T10:23:29.395Z,101436.78
2022-11-29T10:27:30.886Z,101435.94
2022-11-29T10:31:36.880Z,101439.13
2022-11-29T10:35:38.336Z,101447.59
2022-11-29T10:40:20.327Z,101450.94
2022-11-29T10:44:22.097Z,101440.47
2022-11-29T10:48:28.627Z,101441.38
2022-11-29T10:52:30.036Z,101448.22
2022-11-29T10:56:37.552Z,101451.66
2022-11-29T11:00:57.688Z,101445.59
2022-11-29T11:05:00.375Z,101451.88
2022-11-29T11:09:16.745Z,101455.16
2022-11-29T11:13:27.192Z,101451.31
2022-11-29T11:17:32.885Z,101447.22
2022-11-29T11:21:39.037Z,101448.97
2022-11-29T11:25:40.728Z,101441.00
2022-11-29T11:29:44.491Z,101447.03
2022-11-29T11:33:46.405Z,101448.28
2022-11-29T11:37:57.473Z,101451.50
2022-11-29T11:42:17.751Z,101452.44
2022-11-29T11:46:19.429Z,101454.06
2022-11-29T11:50:52.303Z,101452.34
2022-11-29T11:54:57.874Z,101456.00
2022-11-29T11:59:02.089Z,101456.41
2022-11-29T12:03:04.865Z,101453.97
2022-11-29T12:07:26.302Z,101454.06
2022-11-29T12:11:51.287Z,101459.69
2022-11-29T12:15:56.696Z,101462.31
2022-11-29T12:20:26.662Z,101470.34
2022-11-29T12:24:37.923Z,101468.31
2022-11-29T12:28:41.052Z,101460.25
2022-11-29T12:33:04.046Z,101473.09
2022-11-29T12:37:15.213Z,101477.38
2022-11-29T12:41:34.661Z,101480.34
2022-11-29T12:45:38.786Z,101482.75
2022-11-29T12:49:46.210Z,101488.06
2022-11-29T12:53:47.570Z,101492.13
2022-11-29T12:58:14.061Z,101493.47
2022-11-29T13:02:34.544Z,101499.16
2022-11-29T13:06:49.434Z,101509.56
2022-11-29T13:11:23.560Z,101510.97
2022-11-29T13:15:41.759Z,101506.16
2022-11-29T13:19:53.319Z,101504.31
2022-11-29T13:24:12.716Z,101504.06
2022-11-29T13:28:27.858Z,101506.88
2022-11-29T13:32:45.998Z,101513.09
2022-11-29T13:37:18.882Z,101512.19
2022-11-29T13:41:29.009Z,101512.59
2022-11-29T13:45:44.401Z,101514.81
2022-11-29T13:49:54.937Z,101517.44
2022-11-29T13:53:59.502Z,101519.25
2022-11-29T13:58:16.809Z,101526.44
2022-11-29T14:02:37.179Z,101526.03
2022-11-29T14:06:39.089Z,101530.19
2022-11-29T14:10:47.884Z,101526.19
2022-11-29T14:14:53.931Z,101530.72
2022-11-29T14:19:10.235Z,101537.50
2022-11-29T14:23:18.557Z,101540.25
2022-11-29T14:27:19.910Z,101546.78
2022-11-29T14:31:49.187Z,101552.16
2022-11-29T14:36:07.990Z,101553.72
2022-11-29T14:40:35.690Z,101558.69
2022-11-29T14:44:53.669Z,101564.78
2022-11-29T14:48:55.110Z,101569.00
2022-11-29T14:52:56.758Z,101570.41
2022-11-29T14:57:18.175Z,101575.63
2022-11-29T15:01:20.736Z,101578.00
2022-11-29T15:05:41.631Z,101584.41
2022-11-29T15:09:45.482Z,101592.38
2022-11-29T15:14:12.395Z,101590.91
2022-11-29T15:18:27.215Z,101589.81
2022-11-29T15:22:42.669Z,101591.78
2022-11-29T15:26:59.115Z,101590.38
2022-11-29T15:31:09.762Z,101593.97
2022-11-29T15:35:17.972Z,101606.94
2022-11-29T15:39:28.876Z,101610.06
2022-11-29T15:43:35.938Z,101609.31
2022-11-29T15:47:37.376Z,101612.50
2022-11-29T15:51:39.580Z,101612.66
2022-11-29T15:55:43.059Z,101622.31
2022-11-29T15:59:52.132Z,101626.88
2022-11-29T16:03:56.641Z,101636.81
2022-11-29T16:08:17.305Z,101634.56
2022-11-29T16:12:18.891Z,101641.03
2022-11-29T16:16:22.578Z,101640.84
2022-11-29T16:20:25.537Z,101648.19
2022-11-29T16:24:27.215Z,101648.19
2022-11-29T16:28:34.930Z,101653.75
2022-11-29T16:32:42.711Z,101652.56
2022-11-29T16:36:44.281Z,101659.53
2022-11-29T16:41:05.322Z,101664.19
2022-11-29T16:45:27.109Z,101657.72
2022-11-29T16:49:34.952Z,101668.13
2022-11-29T16:53:38.805Z,101672.25
2022-11-29T16:57:40.558Z,101662.66
2022-11-29T17:01:42.069Z,101670.84
2022-11-29T17:05:44.934Z,101669.72
2022-11-29T17:09:46.568Z,101673.41
2022-11-29T17:13:49.031Z,101682.47
2022-11-29T17:17:50.487Z,101684.56
2022-11-29T17:21:52.860Z,101684.31
2022-11-29T17:26:01.094Z,101684.69
2022-11-29T17:30:04.526Z,101685.44
2022-11-29T17:34:06.111Z,101677.50
2022-11-29T17:38:07.529Z,101683.72
2022-11-29T17:42:09.116Z,101686.44
2022-11-29T17:46:14.235Z,101687.84
2022-11-29T17:50:15.864Z,101695.66
2022-11-29T17:54:17.305Z,101693.78
2022-11-29T17:58:18.739Z,101694.78
2022-11-29T18:02:20.329Z,101697.06
2022-11-29T18:06:24.442Z,101694.22
2022-11-29T18:10:28.154Z,101691.84
2022-11-29T18:14:30.950Z,101693.63
2022-11-29T18:18:34.000Z,101710.00
2022-11-29T18:22:35.483Z,101713.34
2022-11-29T18:26:38.234Z,101710.19
2022-11-29T18:30:39.828Z,101707.94
2022-11-29T18:34:41.318Z,101711.84
2022-11-29T18:38:44.250Z,101714.75
2022-11-29T18:42:45.773Z,101722.13
2022-11-29T18:46:47.789Z,101718.53
2022-11-29T18:50:49.298Z,101724.34
2022-11-29T18:54:50.782Z,101722.34
2022-11-29T18:58:58.195Z,101722.69
2022-11-29T19:03:00.180Z,101721.16
2022-11-29T19:07:01.665Z,101715.38
2022-11-29T19:11:11.250Z,101724.34
2022-11-29T19:15:12.769Z,101721.97
2022-11-29T19:19:14.269Z,101730.88
2022-11-29T19:23:16.054Z,101729.91
2022-11-29T19:27:17.526Z,101725.16
2022-11-29T19:31:20.948Z,101723.03
2022-11-29T19:35:22.438Z,101727.47
2022-11-29T19:39:23.902Z,101730.28
2022-11-29T19:43:32.213Z,101721.69
2022-11-29T19:47:33.704Z,101721.97
2022-11-29T19:51:36.183Z,101731.19
2022-11-29T19:55:43.894Z,101719.69
2022-11-29T19:59:48.399Z,101729.38
2022-11-29T20:03:57.184Z,101738.00
2022-11-29T20:08:01.745Z,101740.81
2022-11-29T20:12:03.616Z,101732.16
2022-11-29T20:16:09.496Z,101743.50
2022-11-29T20:20:11.985Z,101748.16
2022-11-29T20:24:15.519Z,101754.94
2022-11-29T20:28:17.019Z,101744.09
2022-11-29T20:32:19.198Z,101750.94
2022-11-29T20:36:35.907Z,101743.78
2022-11-29T20:41:02.916Z,101741.63
2022-11-29T20:45:08.291Z,101753.56
2022-11-29T20:49:13.887Z,101751.19
2022-11-29T20:53:33.246Z,101754.84
2022-11-29T20:57:35.028Z,101754.47
2022-11-29T21:01:36.727Z,101765.03
2022-11-29T21:05:38.333Z,101769.34
2022-11-29T21:09:39.907Z,101767.06
2022-11-29T21:13:47.406Z,101766.63
2022-11-29T21:17:49.058Z,101769.16
2022-11-29T21:21:59.725Z,101771.03
2022-11-29T21:26:13.567Z,101778.47
2022-11-29T21:30:20.811Z,101776.91
2022-11-29T21:34:22.438Z,101777.66
2022-11-29T21:38:26.725Z,101786.00
2022-11-29T21:42:28.165Z,101786.31
2022-11-29T21:46:29.809Z,101791.22
2022-11-29T21:50:31.277Z,101789.88
2022-11-29T21:54:32.985Z,101780.06
2022-11-29T21:58:36.450Z,101786.81
2022-11-29T22:02:38.070Z,101790.44
2022-11-29T22:06:39.714Z,101789.81
2022-11-29T22:10:41.457Z,101789.47
2022-11-29T22:14:43.024Z,101787.81
2022-11-29T22:18:44.477Z,101791.63
2022-11-29T22:22:47.615Z,101800.63
2022-11-29T22:26:49.744Z,101802.84
2022-11-29T22:30:51.206Z,101793.16
2022-11-29T22:34:52.630Z,101791.75
2022-11-29T22:38:54.195Z,101807.28
2022-11-29T22:42:55.637Z,101807.97
2022-11-29T22:46:57.144Z,101808.22
2022-11-29T22:51:03.385Z,101808.69
2022-11-29T22:55:05.477Z,101809.03
2022-11-29T22:59:07.457Z,101807.38
2022-11-29T23:03:08.909Z,101809.28
2022-11-29T23:07:10.380Z,101815.41
2022-11-29T23:11:15.052Z,101815.41
2022-11-29T23:15:16.665Z,101808.84
2022-11-29T23:19:18.329Z,101807.09
2022-11-29T23:23:19.757Z,101809.50
2022-11-29T23:27:21.243Z,101811.41
2022-11-29T23:31:24.208Z,101813.28
2022-11-29T23:35:25.741Z,101813.06
2022-11-29T23:39:27.213Z,101802.63
2022-11-29T23:43:30.684Z,101806.13
2022-11-29T23:47:32.176Z,101809.66
2022-11-29T23:51:33.702Z,101812.13
2022-11-29T23:55:35.147Z,101805.69
2022-11-29T23:59:36.583Z,101817.69
